createdAt,value
2019-02-09T00:00:21.914Z,99313.09
2019-02-09T00:01:26.511Z,99308.02
2019-02-09T00:02:28.731Z,99310.09
2019-02-09T00:03:30.955Z,99310.49
2019-02-09T00:04:33.230Z,99296.20
2019-02-09T00:05:35.431Z,99300.09
2019-02-09T00:06:37.651Z,99298.80
2019-02-09T00:07:39.896Z,99310.09
2019-02-09T00:08:42.088Z,99300.09
2019-02-09T00:09:44.321Z,99301.00
2019-02-09T00:10:46.527Z,99296.70
2019-02-09T00:11:48.726Z,99301.00
2019-02-09T00:12:50.955Z,99299.31
2019-02-09T00:13:53.333Z,99280.21
2019-02-09T00:14:55.487Z,99278.01
2019-02-09T00:15:57.711Z,99281.91
2019-02-09T00:16:59.911Z,99285.02
2019-02-09T00:18:02.165Z,99268.91
2019-02-09T00:19:04.369Z,99269.81
2019-02-09T00:20:06.570Z,99265.38
2019-02-09T00:21:08.771Z,99270.21
2019-02-09T00:22:10.907Z,99266.55
2019-02-09T00:23:13.143Z,99252.27
2019-02-09T00:24:15.363Z,99257.06
2019-02-09T00:25:17.572Z,99245.77
2019-02-09T00:26:19.775Z,99250.56
2019-02-09T00:27:21.975Z,99240.17
2019-02-09T00:28:24.213Z,99250.17
2019-02-09T00:29:26.587Z,99243.67
2019-02-09T00:30:28.808Z,99255.37
2019-02-09T00:31:31.031Z,99252.02
2019-02-09T00:32:33.239Z,99252.02
2019-02-09T00:33:35.475Z,99256.67
2019-02-09T00:34:37.686Z,99249.78
2019-02-09T00:35:39.893Z,99235.88
2019-02-09T00:36:42.107Z,99231.59
2019-02-09T00:37:44.295Z,99236.42
2019-02-09T00:38:46.522Z,99233.28
2019-02-09T00:39:48.763Z,99229.53
2019-02-09T00:40:50.944Z,99226.03
2019-02-09T00:41:53.164Z,99216.39
2019-02-09T00:42:55.394Z,99217.69
2019-02-09T00:43:57.629Z,99228.98
2019-02-09T00:44:59.847Z,99219.89
2019-02-09T00:46:02.040Z,99216.78
2019-02-09T00:47:04.245Z,99217.84
2019-02-09T00:48:06.441Z,99210.80
2019-02-09T00:49:08.659Z,99215.23
2019-02-09T00:50:10.881Z,99209.49
2019-02-09T00:51:13.090Z,99230.68
2019-02-09T00:52:15.286Z,99198.59
2019-02-09T00:53:17.410Z,99212.48
2019-02-09T00:54:19.807Z,99208.20
2019-02-09T00:55:22.053Z,99216.78
2019-02-09T00:56:24.249Z,99212.48
2019-02-09T00:57:26.455Z,99205.99
2019-02-09T00:58:28.663Z,99201.19
2019-02-09T00:59:30.884Z,99212.88
2019-02-09T01:00:33.106Z,99199.89
2019-02-09T01:01:35.254Z,99199.50
2019-02-09T01:02:37.467Z,99198.59
2019-02-09T01:03:39.688Z,99200.40
2019-02-09T01:04:44.926Z,99192.24
2019-02-09T01:05:47.139Z,99195.20
2019-02-09T01:06:49.342Z,99193.54
2019-02-09T01:07:53.769Z,99193.91
2019-02-09T01:08:55.980Z,99187.80
2019-02-09T01:09:58.200Z,99184.69
2019-02-09T01:11:00.396Z,99204.30
2019-02-09T01:12:02.608Z,99197.44
2019-02-09T01:13:04.801Z,99198.34
2019-02-09T01:14:06.994Z,99190.55
2019-02-09T01:15:09.219Z,99188.70
2019-02-09T01:16:11.423Z,99184.05
2019-02-09T01:17:13.642Z,99178.31
2019-02-09T01:18:15.832Z,99179.61
2019-02-09T01:19:18.032Z,99194.84
2019-02-09T01:20:20.248Z,99174.05
2019-02-09T01:21:22.464Z,99183.51
2019-02-09T01:22:26.471Z,99178.31
2019-02-09T01:23:28.714Z,99181.70
2019-02-09T01:24:30.907Z,99158.31
2019-02-09T01:25:33.202Z,99163.11
2019-02-09T01:26:35.485Z,99167.55
2019-02-09T01:27:37.674Z,99165.71
2019-02-09T01:28:39.892Z,99163.66
2019-02-09T01:29:42.107Z,99160.11
2019-02-09T01:30:44.311Z,99152.72
2019-02-09T01:31:46.510Z,99152.72
2019-02-09T01:32:48.723Z,99158.31
2019-02-09T01:33:50.910Z,99155.70
2019-02-09T01:34:53.071Z,99149.36
2019-02-09T01:35:55.292Z,99153.63
2019-02-09T01:36:57.474Z,99151.02
2019-02-09T01:37:59.782Z,99141.92
2019-02-09T01:39:01.989Z,99135.42
2019-02-09T01:40:04.225Z,99147.13
2019-02-09T01:41:06.450Z,99148.81
2019-02-09T01:42:08.697Z,99135.42
2019-02-09T01:43:10.965Z,99138.97
2019-02-09T01:44:13.501Z,99131.92
2019-02-09T01:45:15.740Z,99138.03
2019-02-09T01:46:17.972Z,99146.22
2019-02-09T01:47:20.190Z,99142.32
2019-02-09T01:48:23.706Z,99139.72
2019-02-09T01:49:25.914Z,99134.92
2019-02-09T01:50:28.080Z,99138.03
2019-02-09T01:51:30.322Z,99134.13
2019-02-09T01:52:32.548Z,99142.32
2019-02-09T01:53:34.742Z,99137.13
2019-02-09T01:54:36.982Z,99140.63
2019-02-09T01:55:39.182Z,99141.42
2019-02-09T01:56:41.376Z,99132.83
2019-02-09T01:57:43.795Z,99136.73
2019-02-09T01:58:46.373Z,99139.33
2019-02-09T01:59:48.572Z,99127.27
2019-02-09T02:00:50.803Z,99134.13
2019-02-09T02:01:52.993Z,99131.92
2019-02-09T02:02:55.288Z,99141.42
2019-02-09T02:03:57.496Z,99127.13
2019-02-09T02:04:59.713Z,99135.83
2019-02-09T02:06:01.900Z,99134.52
2019-02-09T02:07:04.108Z,99125.42
2019-02-09T02:08:06.508Z,99124.02
2019-02-09T02:09:08.722Z,99130.63
2019-02-09T02:10:10.922Z,99128.81
2019-02-09T02:11:14.350Z,99122.83
2019-02-09T02:12:16.495Z,99128.93
2019-02-09T02:13:18.711Z,99132.07
2019-02-09T02:14:20.933Z,99130.23
2019-02-09T02:15:27.052Z,99132.47
2019-02-09T02:16:29.285Z,99127.63
2019-02-09T02:17:31.462Z,99125.42
2019-02-09T02:18:33.668Z,99123.38
2019-02-09T02:19:35.863Z,99118.53
2019-02-09T02:20:38.106Z,99130.63
2019-02-09T02:21:40.348Z,99123.23
2019-02-09T02:22:42.548Z,99111.53
2019-02-09T02:23:44.790Z,99111.14
2019-02-09T02:24:46.959Z,99108.14
2019-02-09T02:25:49.347Z,99109.33
2019-02-09T02:26:51.580Z,99106.33
2019-02-09T02:27:53.805Z,99116.33
2019-02-09T02:28:56.099Z,99111.53
2019-02-09T02:29:58.331Z,99116.73
2019-02-09T02:31:00.550Z,99104.64
2019-02-09T02:32:02.905Z,99112.83
2019-02-09T02:33:05.155Z,99101.64
2019-02-09T02:34:07.341Z,99109.44
2019-02-09T02:35:09.556Z,99108.53
2019-02-09T02:36:13.896Z,99105.94
2019-02-09T02:37:16.130Z,99100.23
2019-02-09T02:38:18.327Z,99086.84
2019-02-09T02:39:23.606Z,99097.63
2019-02-09T02:40:25.838Z,99098.03
2019-02-09T02:41:28.038Z,99099.44
2019-02-09T02:42:30.263Z,99092.44
2019-02-09T02:43:32.493Z,99102.04
2019-02-09T02:44:34.671Z,99097.23
2019-02-09T02:45:36.890Z,99097.23
2019-02-09T02:46:39.104Z,99092.44
2019-02-09T02:47:41.313Z,99082.94
2019-02-09T02:48:43.507Z,99078.14
2019-02-09T02:49:45.708Z,99081.64
2019-02-09T02:50:47.917Z,99086.84
2019-02-09T02:51:50.425Z,99067.75
2019-02-09T02:52:52.583Z,99066.05
2019-02-09T02:53:56.516Z,99065.15
2019-02-09T02:54:58.726Z,99081.25
2019-02-09T02:56:00.915Z,99059.95
2019-02-09T02:57:04.230Z,99063.84
2019-02-09T02:58:06.471Z,99069.95
2019-02-09T02:59:08.671Z,99062.16
2019-02-09T03:00:10.880Z,99076.84
2019-02-09T13:29:21.660Z,99015.67
2019-02-09T13:30:25.884Z,99030.36
2019-02-09T13:31:30.206Z,99025.56
2019-02-09T13:32:33.322Z,99010.87
2019-02-09T13:33:39.054Z,99005.16
2019-02-09T13:34:42.105Z,99022.97
2019-02-09T13:35:45.936Z,98996.47
2019-02-09T13:36:48.396Z,98995.56
2019-02-09T13:37:52.294Z,98999.47
2019-02-09T13:38:54.518Z,99015.56
2019-02-09T13:39:56.735Z,99013.76
2019-02-09T13:40:58.964Z,99019.86
2019-02-09T13:42:01.179Z,99012.75
2019-02-09T13:43:03.405Z,99003.76
2019-02-09T13:44:05.615Z,99010.66
2019-02-09T13:45:07.819Z,99015.84
2019-02-09T13:46:10.053Z,99014.16
2019-02-09T13:47:12.265Z,99018.84
2019-02-09T13:48:14.492Z,99016.64
2019-02-09T13:49:16.727Z,99008.05
2019-02-09T13:50:18.954Z,99028.84
2019-02-09T13:51:21.155Z,99013.54
2019-02-09T13:52:23.363Z,99008.84
2019-02-09T13:53:25.677Z,99007.04
2019-02-09T13:54:27.897Z,99016.53
2019-02-09T13:55:30.097Z,98978.85
2019-02-09T13:56:32.385Z,99021.34
2019-02-09T13:57:34.605Z,99018.73
2019-02-09T13:58:36.811Z,99022.63
2019-02-09T13:59:39.032Z,99018.73
2019-02-09T14:00:41.238Z,99016.93
2019-02-09T14:01:43.457Z,99013.83
2019-02-09T14:02:45.689Z,99030.72
2019-02-09T14:03:47.980Z,99045.01
2019-02-09T14:04:50.213Z,99031.48
2019-02-09T14:05:52.418Z,99038.38
2019-02-09T14:06:54.635Z,99014.58
2019-02-09T14:07:56.836Z,99038.77
2019-02-09T14:08:59.047Z,99040.46
2019-02-09T14:10:01.304Z,99037.97
2019-02-09T14:11:03.525Z,99020.18
2019-02-09T14:12:05.863Z,99031.88
2019-02-09T14:13:14.175Z,99040.46
2019-02-09T14:14:11.912Z,99040.06
2019-02-09T14:15:14.125Z,99052.66
2019-02-09T14:16:16.324Z,99028.88
2019-02-09T14:17:18.556Z,99042.16
2019-02-09T14:18:20.777Z,99046.16
2019-02-09T14:19:23.188Z,99024.08
2019-02-09T14:20:25.395Z,99032.66
2019-02-09T14:21:27.603Z,99033.56
2019-02-09T14:22:29.834Z,99030.97
2019-02-09T14:23:32.039Z,99041.36
2019-02-09T14:24:34.247Z,99033.17
2019-02-09T14:25:36.448Z,99034.08
2019-02-09T14:26:46.539Z,99049.66
2019-02-09T14:27:51.855Z,99035.27
2019-02-09T14:28:58.529Z,99041.52
2019-02-09T14:30:05.381Z,99050.61
2019-02-09T14:31:12.985Z,99057.61
2019-02-09T14:32:19.956Z,99005.63
2019-02-09T14:33:22.454Z,99036.93
2019-02-09T14:34:24.832Z,99041.22
2019-02-09T14:35:26.989Z,99054.73
2019-02-09T14:36:29.137Z,99036.14
2019-02-09T14:37:31.375Z,99040.03
2019-02-09T14:38:33.621Z,99037.83
2019-02-09T14:39:35.811Z,99036.64
2019-02-09T14:40:40.228Z,99046.25
2019-02-09T14:41:42.397Z,99044.05
2019-02-09T14:42:44.611Z,99049.35
2019-02-09T14:43:46.811Z,99047.66
2019-02-09T14:44:49.035Z,99040.66
2019-02-09T14:45:51.245Z,99060.66
2019-02-09T14:46:53.447Z,99059.75
2019-02-09T14:47:55.655Z,99055.96
2019-02-09T14:48:57.888Z,99072.86
2019-02-09T14:50:00.214Z,99042.20
2019-02-09T14:51:02.445Z,99060.91
2019-02-09T14:52:04.637Z,99062.31
2019-02-09T14:53:07.039Z,99061.81
2019-02-09T14:54:09.280Z,99051.81
2019-02-09T14:55:13.297Z,99061.67
2019-02-09T14:56:15.495Z,99058.67
2019-02-09T14:57:17.710Z,99059.58
2019-02-09T14:58:19.902Z,99054.77
2019-02-09T14:59:22.163Z,99060.98
2019-02-09T15:00:24.467Z,99056.19
2019-02-09T15:01:26.673Z,99058.39
2019-02-09T15:02:28.897Z,99054.48
2019-02-09T15:03:31.103Z,99072.06
2019-02-09T15:04:33.322Z,99060.48
2019-02-09T15:05:35.521Z,99057.38
2019-02-09T15:06:37.739Z,99058.67
2019-02-09T15:07:39.941Z,99065.97
2019-02-09T15:08:42.145Z,99062.57
2019-02-09T15:09:47.459Z,99070.48
2019-02-09T15:10:52.005Z,99069.58
2019-02-09T15:11:54.213Z,99062.17
2019-02-09T15:12:56.445Z,99062.17
2019-02-09T15:13:58.643Z,99053.19
2019-02-09T15:15:00.880Z,99062.68
2019-02-09T15:16:03.264Z,99074.89
2019-02-09T15:17:05.875Z,99065.90
2019-02-09T15:18:08.053Z,99075.39
2019-02-09T15:19:10.203Z,99065.90
2019-02-09T15:20:12.444Z,99079.69
2019-02-09T15:21:14.648Z,99064.09
2019-02-09T15:22:16.841Z,99089.19
2019-02-09T15:23:19.059Z,99053.08
2019-02-09T15:24:26.280Z,99068.28
2019-02-09T15:25:30.070Z,99079.47
2019-02-09T15:26:38.862Z,99063.87
2019-02-09T15:27:45.970Z,99075.17
2019-02-09T15:28:55.163Z,99065.56
2019-02-09T15:29:59.727Z,99060.48
2019-02-09T15:31:05.081Z,99065.68
2019-02-09T15:32:14.577Z,99089.47
2019-02-09T15:33:22.307Z,99082.97
2019-02-09T15:34:25.647Z,99066.47
2019-02-09T15:35:29.414Z,99065.68
2019-02-09T15:36:33.963Z,99063.08
2019-02-09T15:37:43.856Z,99067.38
2019-02-09T15:38:46.612Z,99080.38
2019-02-09T15:39:48.816Z,99083.48
2019-02-09T15:40:51.022Z,99070.48
2019-02-09T15:41:59.845Z,99070.48
2019-02-09T15:43:08.510Z,99085.17
2019-02-09T15:44:14.004Z,99066.47
2019-02-09T15:45:21.990Z,99038.67
2019-02-09T15:46:30.707Z,99054.77
2019-02-09T15:47:33.315Z,99079.47
2019-02-09T15:48:35.858Z,99080.27
2019-02-09T15:49:38.060Z,99059.06
2019-02-09T15:50:43.277Z,99075.17
2019-02-09T15:51:45.479Z,99079.75
2019-02-09T15:52:47.699Z,99109.25
2019-02-09T15:53:49.918Z,99100.27
2019-02-09T15:54:52.114Z,99101.56
2019-02-09T15:55:54.319Z,99078.56
2019-02-09T15:56:56.532Z,99098.45
2019-02-09T15:57:58.760Z,99097.55
2019-02-09T15:59:00.972Z,99089.75
2019-02-09T16:00:03.189Z,99071.56
2019-02-09T16:01:05.401Z,99104.05
2019-02-09T16:02:07.619Z,99082.86
2019-02-09T16:03:09.849Z,99104.16
2019-02-09T16:04:17.790Z,99109.76
2019-02-09T16:05:15.906Z,99083.66
2019-02-09T16:06:18.106Z,99096.25
2019-02-09T16:07:20.424Z,99102.36
2019-02-09T16:08:22.667Z,99098.34
2019-02-09T16:09:26.662Z,99109.10
2019-02-09T16:10:28.863Z,99126.55
2019-02-09T16:11:31.072Z,99094.95
2019-02-09T16:12:33.264Z,99096.25
2019-02-09T16:13:35.490Z,99100.55
2019-02-09T16:14:37.707Z,99098.70
2019-02-09T16:15:42.620Z,99109.90
2019-02-09T16:16:44.804Z,99120.80
2019-02-09T16:17:47.014Z,99122.10
2019-02-09T16:18:49.263Z,99110.80
2019-02-09T16:19:51.470Z,99121.20
2019-02-09T16:20:53.671Z,99131.74
2019-02-09T16:21:55.895Z,99126.00
2019-02-09T16:22:58.095Z,99124.70
2019-02-09T16:24:00.420Z,99114.30
2019-02-09T16:25:02.633Z,99122.50
2019-02-09T16:26:04.853Z,99118.99
2019-02-09T16:27:07.104Z,99132.39
2019-02-09T16:28:09.421Z,99123.80
2019-02-09T16:29:11.601Z,99143.69
2019-02-09T16:30:18.401Z,99130.30
2019-02-09T16:31:17.676Z,99134.19
2019-02-09T16:32:19.854Z,99141.48
2019-02-09T16:33:22.073Z,99130.58
2019-02-09T16:34:25.458Z,99131.48
2019-02-09T16:35:28.126Z,99118.48
2019-02-09T16:36:30.338Z,99134.08
2019-02-09T16:37:32.541Z,99138.38
2019-02-09T16:38:34.766Z,99127.98
2019-02-09T16:39:37.043Z,99140.04
2019-02-09T16:40:39.338Z,99148.37
2019-02-09T16:41:41.544Z,99140.44
2019-02-09T16:42:43.853Z,99133.03
2019-02-09T16:43:46.046Z,99142.52
2019-02-09T16:44:48.274Z,99150.44
2019-02-09T16:45:50.476Z,99141.73
2019-02-09T16:46:52.683Z,99141.34
2019-02-09T16:47:54.900Z,99130.43
2019-02-09T16:48:57.121Z,99159.81
2019-02-09T16:49:59.354Z,99156.03
2019-02-09T16:51:01.570Z,99145.63
2019-02-09T16:52:03.788Z,99143.94
2019-02-09T16:53:06.011Z,99149.92
2019-02-09T16:54:08.243Z,99152.12
2019-02-09T16:55:10.516Z,99157.33
2019-02-09T16:56:12.726Z,99166.03
2019-02-09T16:57:15.355Z,99159.53
2019-02-09T16:58:17.576Z,99157.72
2019-02-09T16:59:19.789Z,99163.31
2019-02-09T17:00:22.048Z,99168.63
2019-02-09T17:01:24.271Z,99159.92
2019-02-09T17:02:26.484Z,99173.32
2019-02-09T17:03:28.794Z,99169.81
2019-02-09T17:04:33.317Z,99181.12
2019-02-09T17:05:34.912Z,99170.72
2019-02-09T17:06:40.242Z,99156.42
2019-02-09T17:07:44.612Z,99162.92
2019-02-09T17:08:46.840Z,99180.61
2019-02-09T17:09:49.055Z,99172.53
2019-02-09T17:10:51.381Z,99172.81
2019-02-09T17:11:53.704Z,99178.91
2019-02-09T17:12:55.940Z,99175.41
2019-02-09T17:13:58.166Z,99170.72
2019-02-09T17:15:00.367Z,99195.80
2019-02-09T17:16:02.634Z,99186.83
2019-02-09T17:17:04.861Z,99163.71
2019-02-09T17:18:07.066Z,99175.02
2019-02-09T17:19:09.305Z,99181.52
2019-02-09T17:20:11.524Z,99170.21
2019-02-09T17:21:13.911Z,99175.41
2019-02-09T17:22:16.122Z,99163.71
2019-02-09T17:23:18.343Z,99177.22
2019-02-09T17:24:20.570Z,99175.92
2019-02-09T17:25:22.807Z,99190.21
2019-02-09T17:26:25.033Z,99190.21
2019-02-09T17:27:27.234Z,99190.61
2019-02-09T17:28:29.445Z,99185.41
2019-02-09T17:29:31.668Z,99210.10
2019-02-09T17:30:33.875Z,99208.41
2019-02-09T17:31:36.108Z,99175.52
2019-02-09T17:32:38.425Z,99192.41
2019-02-09T17:33:42.206Z,99204.11
2019-02-09T17:34:44.406Z,99207.11
2019-02-09T17:35:46.609Z,99195.41
2019-02-09T17:36:48.833Z,99209.31
2019-02-09T17:37:51.050Z,99195.02
2019-02-09T17:38:53.249Z,99208.92
2019-02-09T17:39:55.454Z,99205.81
2019-02-09T17:40:57.702Z,99215.81
2019-02-09T17:41:59.929Z,99210.61
2019-02-09T17:43:02.131Z,99212.81
2019-02-09T17:44:04.411Z,99236.60
2019-02-09T17:45:06.634Z,99219.31
2019-02-09T17:46:08.835Z,99224.52
2019-02-09T17:47:11.058Z,99220.61
2019-02-09T17:48:13.261Z,99224.91
2019-02-09T17:49:15.465Z,99222.85
2019-02-09T17:50:17.680Z,99221.01
2019-02-09T17:51:19.888Z,99213.61
2019-02-09T17:52:22.127Z,99224.00
2019-02-09T17:53:24.338Z,99234.00
2019-02-09T17:54:26.546Z,99236.20
2019-02-09T17:55:28.744Z,99230.50
2019-02-09T17:56:30.961Z,99225.81
2019-02-09T17:57:33.224Z,99243.10
2019-02-09T17:58:35.434Z,99231.41
2019-02-09T17:59:37.741Z,99241.29
2019-02-09T18:00:42.297Z,99240.50
2019-02-09T18:01:44.531Z,99245.30
2019-02-09T18:02:46.729Z,99242.34
2019-02-09T18:03:48.931Z,99244.01
2019-02-09T18:04:51.326Z,99249.75
2019-02-09T18:05:55.600Z,99246.61
2019-02-09T18:06:59.727Z,99246.25
2019-02-09T18:08:01.657Z,99241.41
2019-02-09T18:09:04.769Z,99246.25
2019-02-09T18:10:06.977Z,99244.41
2019-02-09T18:11:09.183Z,99244.80
2019-02-09T18:12:11.391Z,99267.95
2019-02-09T18:13:13.814Z,99268.70
2019-02-09T18:14:16.029Z,99261.30
2019-02-09T18:15:18.241Z,99258.70
2019-02-09T18:16:20.442Z,99265.20
2019-02-09T18:17:22.663Z,99276.50
2019-02-09T18:18:24.908Z,99258.70
2019-02-09T18:19:27.134Z,99275.20
2019-02-09T18:20:29.330Z,99273.14
2019-02-09T18:21:31.717Z,99284.84
2019-02-09T18:22:33.903Z,99259.60
2019-02-09T18:23:36.142Z,99256.49
2019-02-09T18:24:38.379Z,99280.80
2019-02-09T18:25:40.590Z,99270.00
2019-02-09T18:26:42.785Z,99278.34
2019-02-09T18:27:45.005Z,99276.50
2019-02-09T18:28:47.242Z,99280.40
2019-02-09T18:29:49.451Z,99283.00
2019-02-09T18:30:55.880Z,99287.30
2019-02-09T18:31:58.089Z,99279.49
2019-02-09T18:33:00.331Z,99279.09
2019-02-09T18:34:02.607Z,99281.19
2019-02-09T18:35:04.794Z,99274.30
2019-02-09T18:36:07.003Z,99287.30
2019-02-09T18:37:09.198Z,99285.98
2019-02-09T18:38:11.392Z,99294.69
2019-02-09T18:39:13.654Z,99286.89
2019-02-09T18:40:15.845Z,99305.24
2019-02-09T18:41:18.037Z,99283.94
2019-02-09T18:42:20.359Z,99303.43
2019-02-09T18:43:22.574Z,99290.80
2019-02-09T18:44:24.813Z,99295.63
2019-02-09T18:45:27.009Z,99295.99
2019-02-09T18:46:29.242Z,99288.20
2019-02-09T18:47:31.552Z,99286.38
2019-02-09T18:48:33.769Z,99289.89
2019-02-09T18:49:36.022Z,99308.98
2019-02-09T18:50:38.270Z,99298.98
2019-02-09T18:51:40.430Z,99306.39
2019-02-09T18:52:42.738Z,99306.78
2019-02-09T18:53:44.958Z,99303.43
2019-02-09T18:54:47.200Z,99312.53
2019-02-09T18:55:49.395Z,99309.53
2019-02-09T18:56:51.612Z,99310.84
2019-02-09T18:57:53.922Z,99315.13
2019-02-09T18:58:56.117Z,99308.98
2019-02-09T18:59:58.417Z,99323.68
2019-02-09T19:01:00.621Z,99327.73
2019-02-09T19:02:02.848Z,99319.03
2019-02-09T19:03:08.127Z,99330.33
2019-02-09T19:04:12.002Z,99334.23
2019-02-09T19:05:14.230Z,99325.89
2019-02-09T19:06:16.454Z,99342.78
2019-02-09T19:07:18.680Z,99331.08
2019-02-09T19:08:20.894Z,99328.13
2019-02-09T19:09:23.094Z,99341.12
2019-02-09T19:10:25.384Z,99332.38
2019-02-09T19:11:27.572Z,99353.18
2019-02-09T19:12:29.794Z,99341.48
2019-02-09T19:13:32.022Z,99344.08
2019-02-09T19:14:34.249Z,99337.58
2019-02-09T19:15:36.489Z,99340.73
2019-02-09T19:16:38.687Z,99335.92
2019-02-09T19:17:40.916Z,99335.92
2019-02-09T19:18:43.156Z,99347.23
2019-02-09T19:19:45.366Z,99349.83
2019-02-09T19:20:47.606Z,99357.62
2019-02-09T19:21:49.796Z,99349.83
2019-02-09T19:22:52.014Z,99349.28
2019-02-09T19:23:54.212Z,99354.63
2019-02-09T19:24:56.430Z,99349.04
2019-02-09T19:25:58.758Z,99373.97
2019-02-09T19:27:00.977Z,99364.52
2019-02-09T19:28:03.208Z,99360.62
2019-02-09T19:29:05.560Z,99366.17
2019-02-09T19:30:07.807Z,99339.27
2019-02-09T19:31:10.403Z,99369.32
2019-02-09T19:32:12.616Z,99360.62
2019-02-09T19:33:14.832Z,99347.08
2019-02-09T19:34:17.060Z,99365.42
2019-02-09T19:35:19.295Z,99381.02
2019-02-09T19:36:21.727Z,99368.92
2019-02-09T19:37:23.947Z,99382.71
2019-02-09T19:38:26.159Z,99377.12
2019-02-09T19:39:28.385Z,99388.27
2019-02-09T19:40:30.607Z,99382.32
2019-02-09T19:41:32.816Z,99377.52
2019-02-09T19:42:35.079Z,99378.94
2019-02-09T19:43:37.365Z,99387.91
2019-02-09T19:44:39.581Z,99397.02
2019-02-09T19:45:41.809Z,99395.31
2019-02-09T19:46:44.052Z,99384.02
2019-02-09T19:47:46.287Z,99389.56
2019-02-09T19:48:48.518Z,99394.41
2019-02-09T19:49:50.861Z,99388.94
2019-02-09T19:50:55.147Z,99404.53
2019-02-09T19:51:57.406Z,99405.32
2019-02-09T19:52:59.720Z,99422.22
2019-02-09T19:54:02.002Z,99407.77
2019-02-09T19:55:06.270Z,99414.81
2019-02-09T19:56:08.473Z,99418.31
2019-02-09T19:57:10.707Z,99394.92
2019-02-09T19:58:13.001Z,99388.42
2019-02-09T19:59:15.233Z,99396.62
2019-02-09T20:00:17.452Z,99411.30
2019-02-09T20:01:19.668Z,99411.30
2019-02-09T20:02:21.931Z,99407.77
2019-02-09T20:03:24.401Z,99418.31
2019-02-09T20:04:26.553Z,99420.02
2019-02-09T20:05:28.821Z,99427.02
2019-02-09T20:06:31.037Z,99432.61
2019-02-09T20:07:33.294Z,99423.91
2019-02-09T20:08:35.730Z,99421.82
2019-02-09T20:09:37.948Z,99432.61
2019-02-09T20:10:40.176Z,99435.22
2019-02-09T20:11:42.476Z,99440.80
2019-02-09T20:12:44.654Z,99456.91
2019-02-09T20:13:48.715Z,99429.50
2019-02-09T20:14:50.933Z,99454.71
2019-02-09T20:15:53.176Z,99449.12
2019-02-09T20:16:55.406Z,99451.33
2019-02-09T20:17:57.662Z,99456.91
2019-02-09T20:18:59.871Z,99453.92
2019-02-09T20:20:02.084Z,99449.51
2019-02-09T20:21:04.353Z,99456.80
2019-02-09T20:22:06.571Z,99456.41
2019-02-09T20:23:09.126Z,99456.41
2019-02-09T20:24:11.426Z,99462.12
2019-02-09T20:25:13.770Z,99458.45
2019-02-09T20:26:16.138Z,99456.01
2019-02-09T20:27:18.343Z,99460.70
2019-02-09T20:28:22.170Z,99463.30
2019-02-09T20:29:27.609Z,99469.01
2019-02-09T20:30:29.912Z,99479.02
2019-02-09T20:31:33.437Z,99476.41
2019-02-09T20:32:35.661Z,99488.11
2019-02-09T20:33:37.963Z,99482.00
2019-02-09T20:34:40.177Z,99475.50
2019-02-09T20:35:42.427Z,99485.52
2019-02-09T20:36:44.679Z,99476.41
2019-02-09T20:37:46.963Z,99481.77
2019-02-09T20:38:49.194Z,99479.16
2019-02-09T20:39:51.394Z,99490.20
2019-02-09T20:40:53.610Z,99482.13
2019-02-09T20:41:55.836Z,99492.53
2019-02-09T20:43:02.279Z,99488.75
2019-02-09T20:44:01.976Z,99494.97
2019-02-09T20:45:04.222Z,99488.08
2019-02-09T20:46:06.564Z,99480.28
2019-02-09T20:47:08.815Z,99493.80
2019-02-09T20:48:11.022Z,99478.98
2019-02-09T20:49:13.316Z,99482.09
2019-02-09T20:50:15.537Z,99496.40
2019-02-09T20:51:17.749Z,99487.02
2019-02-09T20:52:21.680Z,99493.52
2019-02-09T20:53:23.916Z,99494.43
2019-02-09T20:54:26.139Z,99497.03
2019-02-09T20:55:28.392Z,99503.53
2019-02-09T20:56:30.781Z,99497.97
2019-02-09T20:57:33.217Z,99493.67
2019-02-09T20:58:35.516Z,99497.19
2019-02-09T20:59:37.673Z,99498.48
2019-02-09T21:00:39.899Z,99503.69
2019-02-09T21:01:42.110Z,99500.30
2019-02-09T21:02:44.308Z,99511.09
2019-02-09T21:03:46.563Z,99509.00
2019-02-09T21:04:48.912Z,99496.40
2019-02-09T21:05:51.146Z,99511.61
2019-02-09T21:06:53.588Z,99530.33
2019-02-09T21:07:55.885Z,99497.70
2019-02-09T21:08:58.217Z,99503.41
2019-02-09T21:10:00.468Z,99498.21
2019-02-09T21:11:02.667Z,99511.73
2019-02-09T21:12:04.902Z,99520.44
2019-02-09T21:13:07.358Z,99520.95
2019-02-09T21:14:09.585Z,99516.02
2019-02-09T21:15:11.822Z,99524.73
2019-02-09T21:16:14.054Z,99542.14
2019-02-09T21:17:16.264Z,99515.35
2019-02-09T21:18:18.477Z,99526.54
2019-02-09T21:19:20.697Z,99526.54
2019-02-09T21:20:22.927Z,99532.26
2019-02-09T21:21:25.169Z,99529.27
2019-02-09T21:22:27.393Z,99536.16
2019-02-09T21:23:29.544Z,99534.86
2019-02-09T21:24:31.764Z,99521.86
2019-02-09T21:25:34.019Z,99535.88
2019-02-09T21:26:36.270Z,99539.16
2019-02-09T21:27:38.593Z,99541.36
2019-02-09T21:28:40.833Z,99523.03
2019-02-09T21:29:43.054Z,99526.54
2019-02-09T21:30:45.398Z,99530.95
2019-02-09T21:31:47.594Z,99531.47
2019-02-09T21:32:49.824Z,99536.03
2019-02-09T21:33:52.048Z,99534.07
2019-02-09T21:34:54.255Z,99537.06
2019-02-09T21:35:56.524Z,99543.95
2019-02-09T21:36:58.723Z,99556.05
2019-02-09T21:38:00.937Z,99542.27
2019-02-09T21:39:03.164Z,99555.14
2019-02-09T21:40:05.390Z,99564.64
2019-02-09T21:41:07.650Z,99537.22
2019-02-09T21:42:10.131Z,99554.91
2019-02-09T21:43:12.326Z,99564.40
2019-02-09T21:44:14.546Z,99558.68
2019-02-09T21:45:16.886Z,99565.19
2019-02-09T21:46:19.109Z,99553.72
2019-02-09T21:47:21.376Z,99558.80
2019-02-09T21:48:23.528Z,99573.87
2019-02-09T21:49:25.831Z,99562.30
2019-02-09T21:50:28.070Z,99554.11
2019-02-09T21:51:30.331Z,99579.20
2019-02-09T21:52:32.589Z,99565.17
2019-02-09T21:53:34.788Z,99569.59
2019-02-09T21:54:37.000Z,99564.78
2019-02-09T21:55:39.427Z,99584.16
2019-02-09T21:56:41.655Z,99594.95
2019-02-09T21:57:43.858Z,99582.86
2019-02-09T21:58:46.132Z,99577.53
2019-02-09T21:59:48.332Z,99580.02
2019-02-09T22:00:50.552Z,99587.81
2019-02-09T22:01:52.771Z,99589.90
2019-02-09T22:02:54.973Z,99585.48
2019-02-09T22:03:57.244Z,99590.29
2019-02-09T22:05:00.326Z,99587.17
2019-02-09T22:06:02.720Z,99593.16
2019-02-09T22:07:04.944Z,99591.86
2019-02-09T22:08:07.398Z,99588.35
2019-02-09T22:09:09.611Z,99605.25
2019-02-09T22:10:11.836Z,99590.80
2019-02-09T22:11:14.101Z,99592.48
2019-02-09T22:12:16.464Z,99594.18
2019-02-09T22:13:18.927Z,99591.03
2019-02-09T22:14:22.269Z,99596.23
2019-02-09T22:15:24.508Z,99603.90
2019-02-09T22:16:26.724Z,99597.92
2019-02-09T22:17:28.987Z,99599.09
2019-02-09T22:18:31.233Z,99590.00
2019-02-09T22:19:33.473Z,99595.59
2019-02-09T22:20:35.735Z,99602.09
2019-02-09T22:21:38.163Z,99598.06
2019-02-09T22:22:40.444Z,99592.73
2019-02-09T22:23:42.682Z,99601.84
2019-02-09T22:24:44.996Z,99603.14
2019-02-09T22:25:47.210Z,99605.61
2019-02-09T22:26:49.504Z,99597.42
2019-02-09T22:27:51.732Z,99587.42
2019-02-09T22:28:53.966Z,99591.31
2019-02-09T22:29:56.230Z,99596.52
2019-02-09T22:30:58.653Z,99588.59
2019-02-09T22:32:00.954Z,99604.55
2019-02-09T22:33:03.307Z,99593.23
2019-02-09T22:34:07.684Z,99607.53
2019-02-09T22:35:09.943Z,99596.39
2019-02-09T22:36:12.159Z,99616.63
2019-02-09T22:37:14.385Z,99600.13
2019-02-09T22:38:16.633Z,99608.32
2019-02-09T22:39:18.829Z,99603.52
2019-02-09T22:40:21.046Z,99607.80
2019-02-09T22:41:23.264Z,99614.81
2019-02-09T22:42:25.454Z,99601.70